sensor_id;sensor_type;location;lat;lon;timestamp;pressure;altitude;pressure_sealevel;temperature;humidity
81704;BME280;71117;52.352;4.808;2024-02-23T00:01:52;98639.38;;;5.66;88.03
81704;BME280;71117;52.352;4.808;2024-02-23T00:04:17;98637.66;;;5.80;87.11
81704;BME280;71117;52.352;4.808;2024-02-23T00:06:45;98646.38;;;5.80;87.00
81704;BME280;71117;52.352;4.808;2024-02-23T00:09:11;98657.75;;;5.84;87.01
81704;BME280;71117;52.352;4.808;2024-02-23T00:11:39;98659.47;;;5.82;87.23
81704;BME280;71117;52.352;4.808;2024-02-23T00:14:06;98654.25;;;5.80;88.28
81704;BME280;71117;52.352;4.808;2024-02-23T00:16:40;98662.94;;;5.78;89.40
81704;BME280;71117;52.352;4.808;2024-02-23T00:19:07;98666.47;;;5.83;87.65
81704;BME280;71117;52.352;4.808;2024-02-23T00:21:33;98675.19;;;5.83;88.43
81704;BME280;71117;52.352;4.808;2024-02-23T00:23:59;98688.34;;;5.91;86.68
81704;BME280;71117;52.352;4.808;2024-02-23T00:26:24;98677.81;;;5.85;86.11
81704;BME280;71117;52.352;4.808;2024-02-23T00:28:49;98690.91;;;5.80;86.49
81704;BME280;71117;52.352;4.808;2024-02-23T00:31:15;98696.13;;;5.76;87.06
81704;BME280;71117;52.352;4.808;2024-02-23T00:33:40;98704.84;;;5.78;87.60
81704;BME280;71117;52.352;4.808;2024-02-23T00:36:07;98694.38;;;5.78;86.22
81704;BME280;71117;52.352;4.808;2024-02-23T00:38:35;98695.25;;;5.77;85.62
81704;BME280;71117;52.352;4.808;2024-02-23T00:41:00;98711.84;;;5.82;85.02
81704;BME280;71117;52.352;4.808;2024-02-23T00:43:25;98697.88;;;5.83;85.52
81704;BME280;71117;52.352;4.808;2024-02-23T00:45:51;98703.13;;;5.83;85.54
81704;BME280;71117;52.352;4.808;2024-02-23T00:48:17;98715.38;;;5.90;85.64
81704;BME280;71117;52.352;4.808;2024-02-23T00:50:43;98716.22;;;5.83;85.96
81704;BME280;71117;52.352;4.808;2024-02-23T00:53:08;98723.19;;;5.76;86.85
81704;BME280;71117;52.352;4.808;2024-02-23T00:55:33;98725.81;;;5.73;86.46
81704;BME280;71117;52.352;4.808;2024-02-23T00:57:58;98738.91;;;5.73;86.30
81704;BME280;71117;52.352;4.808;2024-02-23T01:00:24;98734.50;;;5.72;84.68
81704;BME280;71117;52.352;4.808;2024-02-23T01:02:49;98745.88;;;5.77;84.62
81704;BME280;71117;52.352;4.808;2024-02-23T01:05:15;98751.97;;;5.70;83.91
81704;BME280;71117;52.352;4.808;2024-02-23T01:07:40;98751.94;;;5.60;83.42
81704;BME280;71117;52.352;4.808;2024-02-23T01:10:06;98757.16;;;5.60;82.89
81704;BME280;71117;52.352;4.808;2024-02-23T01:12:31;98749.31;;;5.56;83.26
81704;BME280;71117;52.352;4.808;2024-02-23T01:14:56;98760.63;;;5.55;82.71
81704;BME280;71117;52.352;4.808;2024-02-23T01:17:22;98757.19;;;5.58;82.60
81704;BME280;71117;52.352;4.808;2024-02-23T01:19:47;98752.78;;;5.54;83.33
81704;BME280;71117;52.352;4.808;2024-02-23T01:22:12;98751.06;;;5.57;82.03
81704;BME280;71117;52.352;4.808;2024-02-23T01:24:39;98768.50;;;5.60;81.94
81704;BME280;71117;52.352;4.808;2024-02-23T01:27:05;98766.78;;;5.65;81.50
81704;BME280;71117;52.352;4.808;2024-02-23T01:29:30;98766.75;;;5.61;82.47
81704;BME280;71117;52.352;4.808;2024-02-23T01:31:55;98777.25;;;5.65;81.81
81704;BME280;71117;52.352;4.808;2024-02-23T01:34:21;98778.16;;;5.67;80.49
81704;BME280;71117;52.352;4.808;2024-02-23T01:36:47;98772.03;;;5.62;81.88
81704;BME280;71117;52.352;4.808;2024-02-23T01:39:14;98801.69;;;5.56;81.29
81704;BME280;71117;52.352;4.808;2024-02-23T01:41:47;98774.63;;;5.59;80.57
81704;BME280;71117;52.352;4.808;2024-02-23T01:44:13;98792.06;;;5.58;80.71
81704;BME280;71117;52.352;4.808;2024-02-23T01:46:48;98787.69;;;5.54;81.31
81704;BME280;71117;52.352;4.808;2024-02-23T01:49:14;98785.09;;;5.56;81.63
81704;BME280;71117;52.352;4.808;2024-02-23T01:51:42;98798.13;;;5.47;81.87
81704;BME280;71117;52.352;4.808;2024-02-23T01:54:08;98802.53;;;5.51;80.89
81704;BME280;71117;52.352;4.808;2024-02-23T01:56:35;98810.34;;;5.48;81.07
81704;BME280;71117;52.352;4.808;2024-02-23T01:59:02;98796.38;;;5.47;80.11
81704;BME280;71117;52.352;4.808;2024-02-23T02:01:29;98792.09;;;5.62;79.88
81704;BME280;71117;52.352;4.808;2024-02-23T02:03:56;98804.34;;;5.67;79.25
81704;BME280;71117;52.352;4.808;2024-02-23T02:06:23;98798.22;;;5.64;80.47
81704;BME280;71117;52.352;4.808;2024-02-23T02:08:48;98794.69;;;5.60;80.12
81704;BME280;71117;52.352;4.808;2024-02-23T02:11:13;98804.25;;;5.53;81.63
81704;BME280;71117;52.352;4.808;2024-02-23T02:13:40;98794.63;;;5.43;82.50
81704;BME280;71117;52.352;4.808;2024-02-23T02:16:05;98800.72;;;5.42;81.55
81704;BME280;71117;52.352;4.808;2024-02-23T02:18:31;98807.69;;;5.40;80.95
81704;BME280;71117;52.352;4.808;2024-02-23T02:20:57;98805.06;;;5.39;80.59
81704;BME280;71117;52.352;4.808;2024-02-23T02:23:23;98815.53;;;5.39;80.46
81704;BME280;71117;52.352;4.808;2024-02-23T02:28:23;98811.16;;;5.36;80.90
81704;BME280;71117;52.352;4.808;2024-02-23T02:30:49;98820.81;;;5.49;79.35
81704;BME280;71117;52.352;4.808;2024-02-23T02:33:15;98813.06;;;5.68;78.51
81704;BME280;71117;52.352;4.808;2024-02-23T02:35:40;98813.13;;;5.80;78.98
81704;BME280;71117;52.352;4.808;2024-02-23T02:38:10;98820.97;;;5.83;80.00
81704;BME280;71117;52.352;4.808;2024-02-23T02:40:36;98812.25;;;5.86;80.64
81704;BME280;71117;52.352;4.808;2024-02-23T02:43:01;98812.25;;;5.89;80.79
81704;BME280;71117;52.352;4.808;2024-02-23T02:45:26;98816.66;;;5.90;80.99
81704;BME280;71117;52.352;4.808;2024-02-23T02:47:51;98825.38;;;5.90;80.95
81704;BME280;71117;52.352;4.808;2024-02-23T02:50:17;98824.47;;;5.87;81.02
81704;BME280;71117;52.352;4.808;2024-02-23T02:52:42;98826.22;;;5.89;80.05
81704;BME280;71117;52.352;4.808;2024-02-23T02:55:08;98832.38;;;5.91;80.04
81704;BME280;71117;52.352;4.808;2024-02-23T02:57:33;98821.88;;;5.85;79.77
81704;BME280;71117;52.352;4.808;2024-02-23T03:00:02;98826.19;;;5.81;80.03
81704;BME280;71117;52.352;4.808;2024-02-23T03:02:30;98822.66;;;5.72;80.40
81704;BME280;71117;52.352;4.808;2024-02-23T03:04:56;98833.97;;;5.65;81.46
81704;BME280;71117;52.352;4.808;2024-02-23T03:07:21;98831.38;;;5.65;80.26
81704;BME280;71117;52.352;4.808;2024-02-23T03:09:47;98841.84;;;5.66;80.55
81704;BME280;71117;52.352;4.808;2024-02-23T03:12:12;98838.31;;;5.56;80.52
81704;BME280;71117;52.352;4.808;2024-02-23T03:14:37;98844.41;;;5.55;80.72
81704;BME280;71117;52.352;4.808;2024-02-23T03:17:06;98854.88;;;5.54;80.34
81704;BME280;71117;52.352;4.808;2024-02-23T03:19:31;98849.59;;;5.46;82.07
81704;BME280;71117;52.352;4.808;2024-02-23T03:21:57;98854.81;;;5.43;82.73
81704;BME280;71117;52.352;4.808;2024-02-23T03:24:23;98845.25;;;5.45;84.17
81704;BME280;71117;52.352;4.808;2024-02-23T03:26:48;98833.00;;;5.43;84.23
81704;BME280;71117;52.352;4.808;2024-02-23T03:29:13;98847.03;;;5.52;82.72
81704;BME280;71117;52.352;4.808;2024-02-23T03:31:38;98847.91;;;5.61;83.20
81704;BME280;71117;52.352;4.808;2024-02-23T03:34:04;98847.91;;;5.61;82.48
81704;BME280;71117;52.352;4.808;2024-02-23T03:36:29;98840.94;;;5.60;82.58
81704;BME280;71117;52.352;4.808;2024-02-23T03:38:54;98844.41;;;5.52;83.51
81704;BME280;71117;52.352;4.808;2024-02-23T03:41:20;98854.91;;;5.57;83.30
81704;BME280;71117;52.352;4.808;2024-02-23T03:43:45;98863.63;;;5.59;83.93
81704;BME280;71117;52.352;4.808;2024-02-23T03:46:10;98857.50;;;5.51;83.83
81704;BME280;71117;52.352;4.808;2024-02-23T03:48:37;98848.66;;;5.35;85.15
81704;BME280;71117;52.352;4.808;2024-02-23T03:51:04;98851.25;;;5.29;85.40
81704;BME280;71117;52.352;4.808;2024-02-23T03:53:30;98863.47;;;5.28;85.31
81704;BME280;71117;52.352;4.808;2024-02-23T03:55:56;98868.63;;;5.19;86.33
81704;BME280;71117;52.352;4.808;2024-02-23T03:58:22;98879.03;;;5.12;86.38
81704;BME280;71117;52.352;4.808;2024-02-23T04:00:47;98879.81;;;5.01;87.18
81704;BME280;71117;52.352;4.808;2024-02-23T04:03:12;98876.28;;;4.96;86.93
81704;BME280;71117;52.352;4.808;2024-02-23T04:05:38;98878.91;;;4.96;87.31
81704;BME280;71117;52.352;4.808;2024-02-23T04:08:03;98879.75;;;4.91;87.92
81704;BME280;71117;52.352;4.808;2024-02-23T04:10:29;98884.94;;;4.88;89.14
81704;BME280;71117;52.352;4.808;2024-02-23T04:12:54;98883.16;;;4.84;90.63
81704;BME280;71117;52.352;4.808;2024-02-23T04:15:19;98885.75;;;4.79;90.98
81704;BME280;71117;52.352;4.808;2024-02-23T04:17:46;98886.63;;;4.81;91.56
81704;BME280;71117;52.352;4.808;2024-02-23T04:20:11;98880.59;;;4.88;90.75
81704;BME280;71117;52.352;4.808;2024-02-23T04:22:37;98880.56;;;4.85;91.49
81704;BME280;71117;52.352;4.808;2024-02-23T04:25:03;98885.78;;;4.85;90.79
81704;BME280;71117;52.352;4.808;2024-02-23T04:27:30;98884.09;;;4.92;90.90
81704;BME280;71117;52.352;4.808;2024-02-23T04:29:55;98882.44;;;5.01;90.58
81704;BME280;71117;52.352;4.808;2024-02-23T04:32:21;98888.59;;;5.10;90.53
81704;BME280;71117;52.352;4.808;2024-02-23T04:34:46;98896.47;;;5.14;90.36
81704;BME280;71117;52.352;4.808;2024-02-23T04:37:12;98892.16;;;5.21;90.59
81704;BME280;71117;52.352;4.808;2024-02-23T04:39:37;98900.00;;;5.19;90.85
81704;BME280;71117;52.352;4.808;2024-02-23T04:42:04;98897.34;;;5.12;90.45
81704;BME280;71117;52.352;4.808;2024-02-23T04:44:29;98915.53;;;4.98;92.02
81704;BME280;71117;52.352;4.808;2024-02-23T04:46:54;98914.59;;;4.93;91.40
81704;BME280;71117;52.352;4.808;2024-02-23T04:49:20;98909.38;;;4.91;92.23
81704;BME280;71117;52.352;4.808;2024-02-23T04:51:45;98912.81;;;4.87;92.36
81704;BME280;71117;52.352;4.808;2024-02-23T04:54:10;98921.47;;;4.77;92.85
81704;BME280;71117;52.352;4.808;2024-02-23T04:56:36;98915.28;;;4.69;92.56
81704;BME280;71117;52.352;4.808;2024-02-23T04:59:01;98919.56;;;4.62;93.52
81704;BME280;71117;52.352;4.808;2024-02-23T05:01:26;98931.72;;;4.59;93.96
81704;BME280;71117;52.352;4.808;2024-02-23T05:03:52;98935.31;;;4.68;93.59
81704;BME280;71117;52.352;4.808;2024-02-23T05:06:17;98934.53;;;4.80;93.78
81704;BME280;71117;52.352;4.808;2024-02-23T05:08:42;98923.25;;;4.83;93.22
81704;BME280;71117;52.352;4.808;2024-02-23T05:11:08;98929.41;;;4.89;94.05
81704;BME280;71117;52.352;4.808;2024-02-23T05:13:33;98955.63;;;4.94;92.66
81704;BME280;71117;52.352;4.808;2024-02-23T05:15:58;98924.25;;;4.95;94.40
81704;BME280;71117;52.352;4.808;2024-02-23T05:18:24;98915.44;;;4.86;95.36
81704;BME280;71117;52.352;4.808;2024-02-23T05:20:49;98915.41;;;4.84;96.75
81704;BME280;71117;52.352;4.808;2024-02-23T05:23:15;98908.41;;;4.78;95.05
81704;BME280;71117;52.352;4.808;2024-02-23T05:25:41;98912.72;;;4.73;94.82
81704;BME280;71117;52.352;4.808;2024-02-23T05:28:07;98913.47;;;4.65;95.95
81704;BME280;71117;52.352;4.808;2024-02-23T05:30:32;98912.53;;;4.57;95.86
81704;BME280;71117;52.352;4.808;2024-02-23T05:32:57;98904.59;;;4.47;95.63
81704;BME280;71117;52.352;4.808;2024-02-23T05:35:28;98891.44;;;4.38;94.75
81704;BME280;71117;52.352;4.808;2024-02-23T05:37:54;98900.09;;;4.34;95.23
81704;BME280;71117;52.352;4.808;2024-02-23T05:40:20;98894.88;;;4.34;94.93
81704;BME280;71117;52.352;4.808;2024-02-23T05:42:46;98894.91;;;4.36;94.70
81704;BME280;71117;52.352;4.808;2024-02-23T05:45:11;98906.25;;;4.38;94.87
81704;BME280;71117;52.352;4.808;2024-02-23T05:47:38;98896.69;;;4.40;94.41
81704;BME280;71117;52.352;4.808;2024-02-23T05:50:07;98900.22;;;4.46;93.24
81704;BME280;71117;52.352;4.808;2024-02-23T05:52:33;98910.75;;;4.54;92.98
81704;BME280;71117;52.352;4.808;2024-02-23T05:54:59;98894.25;;;4.57;92.19
81704;BME280;71117;52.352;4.808;2024-02-23T05:57:26;98896.03;;;4.62;91.78
81704;BME280;71117;52.352;4.808;2024-02-23T05:59:51;98893.41;;;4.61;92.22
81704;BME280;71117;52.352;4.808;2024-02-23T06:02:17;98889.03;;;4.57;91.91
81704;BME280;71117;52.352;4.808;2024-02-23T06:04:42;98890.75;;;4.58;93.20
81704;BME280;71117;52.352;4.808;2024-02-23T06:07:08;98882.97;;;4.61;93.45
81704;BME280;71117;52.352;4.808;2024-02-23T06:09:33;98882.16;;;4.66;93.12
81704;BME280;71117;52.352;4.808;2024-02-23T06:11:59;98888.31;;;4.73;92.75
81704;BME280;71117;52.352;4.808;2024-02-23T06:14:27;98883.13;;;4.77;93.39
81704;BME280;71117;52.352;4.808;2024-02-23T06:16:52;98891.06;;;4.88;93.26
81704;BME280;71117;52.352;4.808;2024-02-23T06:19:18;98896.34;;;4.99;92.42
81704;BME280;71117;52.352;4.808;2024-02-23T06:21:47;98887.69;;;5.04;92.33
81704;BME280;71117;52.352;4.808;2024-02-23T06:24:14;98895.56;;;5.09;92.57
81704;BME280;71117;52.352;4.808;2024-02-23T06:26:45;98899.97;;;5.13;92.32
81704;BME280;71117;52.352;4.808;2024-02-23T06:29:11;98901.72;;;5.16;92.24
81704;BME280;71117;52.352;4.808;2024-02-23T06:31:38;98893.91;;;5.20;92.04
81704;BME280;71117;52.352;4.808;2024-02-23T06:34:05;98905.28;;;5.22;92.01
81704;BME280;71117;52.352;4.808;2024-02-23T06:36:30;98907.91;;;5.25;91.91
81704;BME280;71117;52.352;4.808;2024-02-23T06:38:55;98908.78;;;5.23;92.92
81704;BME280;71117;52.352;4.808;2024-02-23T06:41:21;98907.03;;;5.26;91.90
81704;BME280;71117;52.352;4.808;2024-02-23T06:43:46;98905.31;;;5.30;91.62
81704;BME280;71117;52.352;4.808;2024-02-23T06:46:12;98914.06;;;5.32;90.76
81704;BME280;71117;52.352;4.808;2024-02-23T06:48:37;98912.31;;;5.31;90.77
81704;BME280;71117;52.352;4.808;2024-02-23T06:51:06;98914.09;;;5.35;91.44
81704;BME280;71117;52.352;4.808;2024-02-23T06:53:35;98907.09;;;5.36;91.05
81704;BME280;71117;52.352;4.808;2024-02-23T06:56:00;98918.41;;;5.31;90.67
81704;BME280;71117;52.352;4.808;2024-02-23T06:58:26;98910.59;;;5.35;90.72
81704;BME280;71117;52.352;4.808;2024-02-23T07:00:52;98899.25;;;5.34;90.53
81704;BME280;71117;52.352;4.808;2024-02-23T07:03:17;98911.47;;;5.37;91.08
81704;BME280;71117;52.352;4.808;2024-02-23T07:05:43;98909.72;;;5.34;91.38
81704;BME280;71117;52.352;4.808;2024-02-23T07:08:08;98903.59;;;5.30;91.43
81704;BME280;71117;52.352;4.808;2024-02-23T07:10:37;98910.56;;;5.30;90.96
81704;BME280;71117;52.352;4.808;2024-02-23T07:13:04;98916.63;;;5.26;90.59
81704;BME280;71117;52.352;4.808;2024-02-23T07:15:35;98901.78;;;5.23;90.49
81704;BME280;71117;52.352;4.808;2024-02-23T07:18:01;98925.38;;;5.28;90.47
81704;BME280;71117;52.352;4.808;2024-02-23T07:20:30;98919.28;;;5.29;89.30
81704;BME280;71117;52.352;4.808;2024-02-23T07:22:57;98913.19;;;5.30;89.77
81704;BME280;71117;52.352;4.808;2024-02-23T07:25:23;98926.25;;;5.28;88.73
81704;BME280;71117;52.352;4.808;2024-02-23T07:27:48;98913.16;;;5.28;88.92
81704;BME280;71117;52.352;4.808;2024-02-23T07:30:14;98912.31;;;5.29;88.35
81704;BME280;71117;52.352;4.808;2024-02-23T07:32:41;98911.44;;;5.29;87.90
81704;BME280;71117;52.352;4.808;2024-02-23T07:35:07;98912.31;;;5.31;88.22
81704;BME280;71117;52.352;4.808;2024-02-23T07:37:32;98909.69;;;5.29;87.70
81704;BME280;71117;52.352;4.808;2024-02-23T07:39:58;98910.56;;;5.33;88.26
81704;BME280;71117;52.352;4.808;2024-02-23T07:42:23;98895.78;;;5.38;87.70
81704;BME280;71117;52.352;4.808;2024-02-23T07:44:49;98899.25;;;5.36;88.43
81704;BME280;71117;52.352;4.808;2024-02-23T07:47:14;98900.09;;;5.33;88.26
81704;BME280;71117;52.352;4.808;2024-02-23T07:49:39;98890.50;;;5.30;88.57
81704;BME280;71117;52.352;4.808;2024-02-23T07:52:07;98887.84;;;5.27;89.09
81704;BME280;71117;52.352;4.808;2024-02-23T07:54:33;98881.69;;;5.21;89.53
81704;BME280;71117;52.352;4.808;2024-02-23T07:56:58;98893.03;;;5.20;90.19
81704;BME280;71117;52.352;4.808;2024-02-23T07:59:27;98898.25;;;5.17;90.71
81704;BME280;71117;52.352;4.808;2024-02-23T08:01:53;98886.88;;;5.13;91.31
81704;BME280;71117;52.352;4.808;2024-02-23T08:04:18;98879.00;;;5.09;91.19
81704;BME280;71117;52.352;4.808;2024-02-23T08:06:44;98886.84;;;5.10;91.09
81704;BME280;71117;52.352;4.808;2024-02-23T08:09:09;98889.47;;;5.06;92.47
81704;BME280;71117;52.352;4.808;2024-02-23T08:11:35;98874.56;;;4.97;93.39
81704;BME280;71117;52.352;4.808;2024-02-23T08:14:00;98889.28;;;4.87;94.14
81704;BME280;71117;52.352;4.808;2024-02-23T08:16:28;98893.59;;;4.81;94.44
81704;BME280;71117;52.352;4.808;2024-02-23T08:18:53;98890.88;;;4.70;95.61
81704;BME280;71117;52.352;4.808;2024-02-23T08:21:19;98909.06;;;4.56;96.42
81704;BME280;71117;52.352;4.808;2024-02-23T08:23:44;98886.28;;;4.46;97.54
81704;BME280;71117;52.352;4.808;2024-02-23T08:26:10;98881.88;;;4.42;97.67
81704;BME280;71117;52.352;4.808;2024-02-23T08:28:35;98886.19;;;4.35;97.19
81704;BME280;71117;52.352;4.808;2024-02-23T08:31:01;98894.88;;;4.34;98.38
81704;BME280;71117;52.352;4.808;2024-02-23T08:33:26;98862.66;;;4.34;98.83
81704;BME280;71117;52.352;4.808;2024-02-23T08:35:51;98877.53;;;4.39;98.40
81704;BME280;71117;52.352;4.808;2024-02-23T08:38:17;98873.22;;;4.44;98.31
81704;BME280;71117;52.352;4.808;2024-02-23T08:40:43;98886.34;;;4.50;99.47
81704;BME280;71117;52.352;4.808;2024-02-23T08:43:10;98882.91;;;4.55;98.68
81704;BME280;71117;52.352;4.808;2024-02-23T08:45:35;98869.84;;;4.55;99.06
81704;BME280;71117;52.352;4.808;2024-02-23T08:48:03;98876.88;;;4.62;99.44
81704;BME280;71117;52.352;4.808;2024-02-23T08:50:29;98862.94;;;4.64;99.33
81704;BME280;71117;52.352;4.808;2024-02-23T08:52:54;98867.38;;;4.71;99.34
81704;BME280;71117;52.352;4.808;2024-02-23T08:55:20;98867.41;;;4.76;99.60
81704;BME280;71117;52.352;4.808;2024-02-23T08:57:46;98875.25;;;4.74;99.48
81704;BME280;71117;52.352;4.808;2024-02-23T09:00:12;98859.53;;;4.73;99.14
81704;BME280;71117;52.352;4.808;2024-02-23T09:02:38;98863.94;;;4.77;99.49
81704;BME280;71117;52.352;4.808;2024-02-23T09:05:04;98866.63;;;4.86;99.49
81704;BME280;71117;52.352;4.808;2024-02-23T09:07:30;98877.91;;;4.82;99.79
81704;BME280;71117;52.352;4.808;2024-02-23T09:09:55;98861.34;;;4.80;99.24
81704;BME280;71117;52.352;4.808;2024-02-23T09:12:27;98860.44;;;4.76;100.00
81704;BME280;71117;52.352;4.808;2024-02-23T09:14:52;98878.78;;;4.80;100.00
81704;BME280;71117;52.352;4.808;2024-02-23T09:17:17;98862.16;;;4.74;99.56
81704;BME280;71117;52.352;4.808;2024-02-23T09:19:45;98861.28;;;4.75;98.58
81704;BME280;71117;52.352;4.808;2024-02-23T09:22:11;98858.69;;;4.74;99.10
81704;BME280;71117;52.352;4.808;2024-02-23T09:24:39;98852.59;;;4.75;99.24
81704;BME280;71117;52.352;4.808;2024-02-23T09:27:05;98866.56;;;4.82;99.94
81704;BME280;71117;52.352;4.808;2024-02-23T09:29:32;98881.44;;;4.87;99.62
81704;BME280;71117;52.352;4.808;2024-02-23T09:31:58;98871.03;;;4.90;98.68
81704;BME280;71117;52.352;4.808;2024-02-23T09:34:26;98860.56;;;4.92;99.61
81704;BME280;71117;52.352;4.808;2024-02-23T09:36:54;98867.63;;;5.00;98.86
81704;BME280;71117;52.352;4.808;2024-02-23T09:39:19;98868.53;;;5.10;99.08
81704;BME280;71117;52.352;4.808;2024-02-23T09:41:50;98873.84;;;5.18;98.52
81704;BME280;71117;52.352;4.808;2024-02-23T09:44:18;98883.53;;;5.29;97.84
81704;BME280;71117;52.352;4.808;2024-02-23T09:46:45;98876.59;;;5.38;97.82
81704;BME280;71117;52.352;4.808;2024-02-23T09:49:11;98899.25;;;5.39;96.83
81704;BME280;71117;52.352;4.808;2024-02-23T09:51:38;98865.25;;;5.37;96.83
81704;BME280;71117;52.352;4.808;2024-02-23T09:54:04;98877.50;;;5.40;97.09
81704;BME280;71117;52.352;4.808;2024-02-23T09:56:30;98882.75;;;5.46;97.58
81704;BME280;71117;52.352;4.808;2024-02-23T09:58:58;98885.34;;;5.43;97.53
81704;BME280;71117;52.352;4.808;2024-02-23T10:01:28;98889.69;;;5.42;96.65
81704;BME280;71117;52.352;4.808;2024-02-23T10:03:56;98883.72;;;5.66;97.38
81704;BME280;71117;52.352;4.808;2024-02-23T10:06:24;98882.06;;;5.80;96.18
81704;BME280;71117;52.352;4.808;2024-02-23T10:08:49;98884.69;;;5.83;95.23
81704;BME280;71117;52.352;4.808;2024-02-23T10:11:18;98881.31;;;5.95;95.43
81704;BME280;71117;52.352;4.808;2024-02-23T10:13:44;98886.47;;;5.84;94.57
81704;BME280;71117;52.352;4.808;2024-02-23T10:16:09;98882.97;;;5.89;94.62
81704;BME280;71117;52.352;4.808;2024-02-23T10:18:37;98884.78;;;5.99;94.36
81704;BME280;71117;52.352;4.808;2024-02-23T10:21:04;98870.88;;;6.17;93.33
81704;BME280;71117;52.352;4.808;2024-02-23T10:23:30;98880.50;;;6.18;93.27
81704;BME280;71117;52.352;4.808;2024-02-23T10:25:55;98892.78;;;6.29;93.00
81704;BME280;71117;52.352;4.808;2024-02-23T10:28:21;98898.91;;;6.44;91.87
81704;BME280;71117;52.352;4.808;2024-02-23T10:30:48;98914.66;;;6.42;92.37
81704;BME280;71117;52.352;4.808;2024-02-23T10:33:14;98897.19;;;6.56;90.83
81704;BME280;71117;52.352;4.808;2024-02-23T10:35:39;98904.22;;;6.59;89.94
81704;BME280;71117;52.352;4.808;2024-02-23T10:38:08;98917.31;;;6.67;89.83
81704;BME280;71117;52.352;4.808;2024-02-23T10:40:38;98905.09;;;6.70;90.20
81704;BME280;71117;52.352;4.808;2024-02-23T10:43:11;98919.94;;;6.73;89.48
81704;BME280;71117;52.352;4.808;2024-02-23T10:45:38;98919.97;;;6.77;89.99
81704;BME280;71117;52.352;4.808;2024-02-23T10:48:06;98927.00;;;6.91;88.38
81704;BME280;71117;52.352;4.808;2024-02-23T10:50:34;98935.72;;;6.88;87.43
81704;BME280;71117;52.352;4.808;2024-02-23T10:53:00;98951.50;;;6.97;85.49
81704;BME280;71117;52.352;4.808;2024-02-23T10:55:27;98928.75;;;7.19;85.76
81704;BME280;71117;52.352;4.808;2024-02-23T10:57:55;98935.75;;;7.08;85.55
81704;BME280;71117;52.352;4.808;2024-02-23T11:00:22;98939.25;;;7.10;85.58
81704;BME280;71117;52.352;4.808;2024-02-23T11:02:51;98958.47;;;7.04;86.40
81704;BME280;71117;52.352;4.808;2024-02-23T11:05:19;98952.38;;;6.96;87.38
81704;BME280;71117;52.352;4.808;2024-02-23T11:07:47;98958.50;;;7.03;86.92
81704;BME280;71117;52.352;4.808;2024-02-23T11:10:15;98945.38;;;7.24;86.54
81704;BME280;71117;52.352;4.808;2024-02-23T11:12:43;98985.63;;;7.22;85.20
81704;BME280;71117;52.352;4.808;2024-02-23T11:15:09;98957.63;;;7.02;85.63
81704;BME280;71117;52.352;4.808;2024-02-23T11:17:36;98963.75;;;7.21;82.62
81704;BME280;71117;52.352;4.808;2024-02-23T11:20:05;98959.34;;;7.29;83.94
81704;BME280;71117;52.352;4.808;2024-02-23T11:22:33;98966.38;;;7.27;83.89
81704;BME280;71117;52.352;4.808;2024-02-23T11:25:09;98967.25;;;7.28;85.62
81704;BME280;71117;52.352;4.808;2024-02-23T11:27:36;98961.97;;;7.63;84.12
81704;BME280;71117;52.352;4.808;2024-02-23T11:30:07;98974.22;;;7.52;82.43
81704;BME280;71117;52.352;4.808;2024-02-23T11:32:39;98965.47;;;7.82;83.25
81704;BME280;71117;52.352;4.808;2024-02-23T11:35:07;98973.25;;;8.15;81.06
81704;BME280;71117;52.352;4.808;2024-02-23T11:37:32;98980.31;;;7.96;81.29
81704;BME280;71117;52.352;4.808;2024-02-23T11:40:00;98980.34;;;7.84;81.34
81704;BME280;71117;52.352;4.808;2024-02-23T11:42:27;98991.72;;;7.86;80.42
81704;BME280;71117;52.352;4.808;2024-02-23T11:44:52;99006.59;;;7.89;80.60
81704;BME280;71117;52.352;4.808;2024-02-23T11:47:22;98982.91;;;8.12;81.45
81704;BME280;71117;52.352;4.808;2024-02-23T11:49:48;98979.63;;;10.32;74.44
81704;BME280;71117;52.352;4.808;2024-02-23T11:52:13;98976.22;;;10.21;71.86
81704;BME280;71117;52.352;4.808;2024-02-23T11:54:45;98968.75;;;10.58;71.46
81704;BME280;71117;52.352;4.808;2024-02-23T11:57:11;98994.75;;;10.14;70.48
81704;BME280;71117;52.352;4.808;2024-02-23T11:59:40;98995.13;;;9.75;72.14
81704;BME280;71117;52.352;4.808;2024-02-23T12:02:08;98992.72;;;9.51;74.03
81704;BME280;71117;52.352;4.808;2024-02-23T12:04:36;99016.41;;;9.54;73.12
81704;BME280;71117;52.352;4.808;2024-02-23T12:07:02;99000.56;;;9.56;73.09
81704;BME280;71117;52.352;4.808;2024-02-23T12:09:27;99005.44;;;8.80;74.80
81704;BME280;71117;52.352;4.808;2024-02-23T12:11:53;99014.16;;;8.91;76.71
81704;BME280;71117;52.352;4.808;2024-02-23T12:14:18;99008.19;;;8.65;76.06
81704;BME280;71117;52.352;4.808;2024-02-23T12:16:45;99009.72;;;9.02;75.81
81704;BME280;71117;52.352;4.808;2024-02-23T12:19:12;99012.59;;;8.55;76.20
81704;BME280;71117;52.352;4.808;2024-02-23T12:21:45;99002.13;;;8.38;77.21
81704;BME280;71117;52.352;4.808;2024-02-23T12:24:13;99005.63;;;8.36;77.78
81704;BME280;71117;52.352;4.808;2024-02-23T12:26:44;99021.44;;;8.25;79.01
81704;BME280;71117;52.352;4.808;2024-02-23T12:29:11;99042.50;;;8.14;79.94
81704;BME280;71117;52.352;4.808;2024-02-23T12:31:39;99026.72;;;8.02;79.08
81704;BME280;71117;52.352;4.808;2024-02-23T12:34:14;99022.34;;;7.90;79.02
81704;BME280;71117;52.352;4.808;2024-02-23T12:36:42;99020.63;;;7.82;79.74
81704;BME280;71117;52.352;4.808;2024-02-23T12:39:08;99029.38;;;7.90;80.65
81704;BME280;71117;52.352;4.808;2024-02-23T12:41:39;99032.00;;;7.85;79.20
81704;BME280;71117;52.352;4.808;2024-02-23T12:44:10;99040.78;;;7.83;80.02
81704;BME280;71117;52.352;4.808;2024-02-23T12:46:40;99017.06;;;8.26;78.23
81704;BME280;71117;52.352;4.808;2024-02-23T12:49:06;99024.91;;;8.29;77.39
81704;BME280;71117;52.352;4.808;2024-02-23T12:51:31;99026.72;;;8.16;78.26
81704;BME280;71117;52.352;4.808;2024-02-23T12:53:59;99031.94;;;8.39;76.72
81704;BME280;71117;52.352;4.808;2024-02-23T12:56:25;99020.47;;;8.58;77.34
81704;BME280;71117;52.352;4.808;2024-02-23T12:58:52;99025.69;;;8.72;75.52
81704;BME280;71117;52.352;4.808;2024-02-23T13:01:23;99035.16;;;9.05;74.80
81704;BME280;71117;52.352;4.808;2024-02-23T13:03:51;99032.22;;;9.48;73.48
81704;BME280;71117;52.352;4.808;2024-02-23T13:06:16;99030.63;;;9.28;74.08
81704;BME280;71117;52.352;4.808;2024-02-23T13:08:44;99027.84;;;9.50;73.37